createdAt,value
2022-11-02T00:04:05.066Z,10.02
2022-11-02T00:09:08.693Z,11.05
2022-11-02T00:14:13.393Z,8.98
2022-11-02T00:19:16.962Z,9.45
2022-11-02T00:24:20.504Z,10.13
2022-11-02T00:29:27.836Z,11.57
2022-11-02T00:41:18.536Z,8.30
2022-11-02T00:46:23.238Z,10.70
2022-11-02T00:51:26.872Z,9.70
2022-11-02T00:56:30.423Z,10.07
2022-11-02T01:01:35.333Z,9.80
2022-11-02T01:06:39.307Z,11.05
2022-11-02T01:11:42.963Z,9.18
2022-11-02T01:16:47.843Z,11.60
2022-11-02T01:21:51.320Z,10.75
2022-11-02T01:26:54.885Z,9.25
2022-11-02T01:31:59.568Z,9.77
2022-11-02T01:37:02.837Z,9.90
2022-11-02T01:42:17.718Z,8.35
2022-11-02T01:47:27.021Z,11.02
2022-11-02T01:52:35.600Z,8.73
2022-11-02T01:57:40.865Z,8.50
2022-11-02T02:02:54.879Z,9.40
2022-11-02T02:07:59.282Z,7.28
2022-11-02T02:13:02.743Z,9.93
2022-11-02T02:18:14.025Z,7.93
2022-11-02T02:23:53.082Z,9.35
2022-11-02T02:29:03.387Z,8.90
2022-11-02T02:34:13.835Z,7.32
2022-11-02T02:39:23.357Z,7.93
2022-11-02T02:44:33.812Z,8.93
2022-11-02T02:49:43.197Z,8.13
2022-11-02T02:54:48.899Z,7.35
2022-11-02T02:59:56.176Z,7.32
2022-11-02T03:04:59.929Z,6.88
2022-11-02T03:10:12.805Z,6.53
2022-11-02T03:15:23.281Z,5.68
2022-11-02T03:20:34.406Z,5.82
2022-11-02T03:25:46.015Z,6.30
2022-11-02T03:30:58.992Z,6.50
2022-11-02T03:36:09.063Z,7.65
2022-11-02T03:41:14.355Z,6.82
2022-11-02T03:46:20.721Z,5.50
2022-11-02T03:51:28.235Z,6.20
2022-11-02T03:56:36.950Z,5.00
2022-11-02T04:01:45.364Z,7.43
2022-11-02T04:06:50.509Z,6.40
2022-11-02T04:12:08.695Z,5.38
2022-11-02T04:17:42.543Z,4.93
2022-11-02T04:23:06.839Z,5.72
2022-11-02T04:28:10.876Z,5.70
2022-11-02T04:33:36.749Z,7.18
2022-11-02T04:38:46.794Z,8.32
2022-11-02T04:44:11.457Z,6.93
2022-11-02T04:49:17.372Z,5.30
2022-11-02T04:54:21.396Z,8.80
2022-11-02T04:59:30.180Z,5.90
2022-11-02T05:04:36.044Z,5.45
2022-11-02T05:09:42.380Z,5.18
2022-11-02T05:14:47.062Z,5.72
2022-11-02T05:19:52.403Z,7.13
2022-11-02T05:24:56.850Z,6.57
2022-11-02T05:30:00.267Z,6.15
2022-11-02T05:35:06.732Z,5.95
2022-11-02T05:40:11.817Z,6.30
2022-11-02T05:45:17.241Z,5.55
2022-11-02T05:50:24.227Z,7.10
2022-11-02T05:55:29.567Z,8.18
2022-11-02T06:00:32.943Z,7.50
2022-11-02T06:05:37.951Z,7.13
2022-11-02T06:10:43.280Z,7.45
2022-11-02T06:15:46.988Z,6.80
2022-11-02T06:20:51.714Z,5.72
2022-11-02T06:32:39.188Z,5.78
2022-11-02T06:37:43.942Z,7.05
2022-11-02T06:43:03.374Z,7.35
2022-11-02T06:48:10.488Z,7.85
2022-11-02T06:53:15.260Z,6.45
2022-11-02T06:58:18.709Z,6.72
2022-11-02T07:03:22.242Z,7.82
2022-11-02T07:08:27.369Z,7.65
2022-11-02T07:13:30.663Z,6.53
2022-11-02T07:18:33.991Z,13.38
2022-11-02T07:23:38.616Z,7.30
2022-11-02T07:35:25.238Z,8.27
2022-11-02T07:40:31.321Z,9.55
2022-11-02T07:45:35.028Z,7.43
2022-11-02T07:50:38.323Z,9.95
2022-11-02T07:55:42.926Z,9.23
2022-11-02T08:00:46.210Z,7.63
2022-11-02T08:12:33.281Z,7.30
2022-11-02T08:17:36.666Z,5.03
2022-11-02T08:22:40.290Z,6.55
2022-11-02T08:27:45.044Z,4.78
2022-11-02T08:32:51.502Z,4.40
2022-11-02T08:37:57.962Z,4.63
2022-11-02T08:43:04.928Z,6.80
2022-11-02T08:48:08.870Z,4.63
2022-11-02T08:53:12.372Z,3.60
2022-11-02T08:58:18.616Z,2.70
2022-11-02T09:03:26.951Z,5.75
2022-11-02T09:08:31.410Z,4.35
2022-11-02T09:13:36.133Z,1.85
2022-11-02T09:18:39.644Z,2.17
2022-11-02T09:23:42.990Z,2.88
2022-11-02T09:28:47.919Z,3.90
2022-11-02T09:40:39.849Z,1.45
2022-11-02T09:45:54.615Z,3.92
2022-11-02T09:51:04.498Z,2.60
2022-11-02T09:56:09.856Z,1.58
2022-11-02T10:01:34.323Z,1.60
2022-11-02T10:06:40.447Z,2.00
2022-11-02T10:11:53.581Z,3.72
2022-11-02T10:17:05.528Z,2.22
2022-11-02T10:22:13.973Z,1.70
2022-11-02T10:27:22.613Z,1.67
2022-11-02T10:32:27.647Z,2.20
2022-11-02T10:37:43.194Z,2.40
2022-11-02T10:43:00.351Z,1.90
2022-11-02T10:48:13.562Z,1.50
2022-11-02T10:58:46.981Z,1.90
2022-11-02T11:03:57.911Z,2.90
2022-11-02T11:20:57.062Z,1.42
2022-11-02T11:26:02.424Z,1.58
2022-11-02T11:31:14.426Z,2.47
2022-11-02T11:36:33.078Z,1.45
2022-11-02T11:41:41.137Z,1.60
2022-11-02T11:46:46.396Z,2.38
2022-11-02T11:51:53.239Z,2.60
2022-11-02T11:56:58.061Z,1.10
2022-11-02T12:02:03.924Z,1.15
2022-11-02T12:07:34.947Z,3.00
2022-11-02T12:12:54.005Z,1.35
2022-11-02T12:18:18.326Z,3.20
2022-11-02T12:23:37.149Z,1.98
2022-11-02T12:28:49.468Z,1.80
2022-11-02T12:34:11.581Z,1.05
2022-11-02T12:39:26.743Z,3.53
2022-11-02T12:44:44.997Z,2.15
2022-11-02T12:49:59.156Z,1.33
2022-11-02T12:55:13.251Z,1.08
2022-11-02T13:00:22.783Z,2.67
2022-11-02T13:11:54.391Z,1.58
2022-11-02T13:23:46.268Z,1.40
2022-11-02T13:28:55.884Z,2.15
2022-11-02T13:34:03.129Z,1.20
2022-11-02T13:39:11.580Z,1.40
2022-11-02T13:44:41.330Z,2.90
2022-11-02T13:49:50.397Z,1.95
2022-11-02T14:00:05.684Z,1.95
2022-11-02T14:11:52.020Z,1.17
2022-11-02T14:17:13.292Z,2.58
2022-11-02T14:29:00.640Z,1.65
2022-11-02T14:40:48.205Z,1.17
2022-11-02T14:46:09.678Z,2.15
2022-11-02T14:51:19.753Z,2.83
2022-11-02T14:56:25.209Z,1.52
2022-11-02T15:01:28.582Z,1.85
2022-11-02T15:06:33.481Z,1.98
2022-11-02T15:11:49.916Z,3.30
2022-11-02T15:16:54.490Z,9.57
2022-11-02T15:22:34.233Z,3.25
2022-11-02T15:27:39.662Z,1.73
2022-11-02T15:32:48.570Z,1.90
2022-11-02T15:38:16.541Z,2.80
2022-11-02T15:49:06.270Z,3.35
2022-11-02T15:54:23.263Z,3.25
2022-11-02T15:59:56.019Z,4.53
2022-11-02T16:05:02.322Z,4.22
2022-11-02T16:10:21.993Z,4.25
2022-11-02T16:15:26.350Z,1.77
2022-11-02T16:20:34.558Z,2.45
2022-11-02T16:25:45.063Z,2.53
2022-11-02T16:31:06.921Z,2.38
2022-11-02T16:36:18.740Z,2.80
2022-11-02T16:41:26.134Z,2.38
2022-11-02T16:46:40.798Z,2.03
2022-11-02T16:51:51.074Z,2.67
2022-11-02T16:56:59.800Z,1.88
2022-11-02T17:02:05.314Z,2.97
2022-11-02T17:07:15.060Z,1.73
2022-11-02T17:12:20.896Z,2.50
2022-11-02T17:17:38.007Z,3.28
2022-11-02T17:22:51.802Z,4.53
2022-11-02T17:27:58.032Z,3.20
2022-11-02T17:33:08.332Z,2.88
2022-11-02T17:38:12.298Z,3.00
2022-11-02T17:43:17.877Z,1.83
2022-11-02T17:48:22.167Z,3.25
2022-11-02T17:53:27.023Z,2.17
2022-11-02T17:58:33.126Z,4.03
2022-11-02T18:03:37.382Z,2.20
2022-11-02T18:08:57.621Z,1.73
2022-11-02T18:14:05.070Z,2.35
2022-11-02T18:19:09.429Z,1.25
2022-11-02T18:24:15.643Z,1.42
2022-11-02T18:29:21.875Z,2.70
2022-11-02T18:34:26.335Z,2.85
2022-11-02T18:39:31.201Z,2.20
2022-11-02T18:44:39.766Z,2.60
2022-11-02T18:49:44.460Z,2.22
2022-11-02T19:01:15.400Z,2.47
2022-11-02T19:06:37.859Z,2.13
2022-11-02T19:11:42.452Z,1.70
2022-11-02T19:16:50.317Z,2.05
2022-11-02T19:21:56.807Z,2.63
2022-11-02T19:27:01.627Z,2.70
2022-11-02T19:32:07.708Z,2.50
2022-11-02T19:37:12.247Z,3.33
2022-11-02T19:42:16.247Z,1.40
2022-11-02T19:47:22.500Z,1.38
2022-11-02T19:52:26.969Z,2.78
2022-11-02T19:57:36.315Z,1.63
2022-11-02T20:02:45.489Z,2.78
2022-11-02T20:07:50.183Z,2.75
2022-11-02T20:12:54.451Z,3.65
2022-11-02T20:18:18.473Z,2.70
2022-11-02T20:23:23.609Z,2.17
2022-11-02T20:28:31.616Z,3.92
2022-11-02T20:33:37.890Z,2.53
2022-11-02T20:38:42.933Z,2.05
2022-11-02T20:43:48.759Z,2.17
2022-11-02T20:48:55.521Z,1.77
2022-11-02T20:53:59.966Z,2.72
2022-11-02T20:59:06.395Z,2.25
2022-11-02T21:04:16.906Z,3.53
2022-11-02T21:09:23.476Z,1.65
2022-11-02T21:14:27.355Z,2.13
2022-11-02T21:19:32.519Z,3.08
2022-11-02T21:24:36.188Z,2.88
2022-11-02T21:29:39.848Z,2.78
2022-11-02T21:34:44.797Z,3.00
2022-11-02T21:39:48.847Z,3.50
2022-11-02T21:45:00.718Z,2.83
2022-11-02T21:50:07.942Z,3.53
2022-11-02T21:55:11.667Z,2.65
2022-11-02T22:00:16.065Z,3.35
2022-11-02T22:05:40.970Z,2.33
2022-11-02T22:17:48.348Z,3.35
2022-11-02T22:22:52.653Z,3.22
2022-11-02T22:27:56.237Z,3.95
2022-11-02T22:32:59.743Z,3.08
2022-11-02T22:38:22.004Z,2.63
2022-11-02T22:43:25.465Z,2.60
2022-11-02T22:48:29.236Z,6.05
2022-11-02T22:53:36.535Z,4.80
2022-11-02T22:58:40.937Z,3.15
2022-11-02T23:03:44.945Z,4.47
2022-11-02T23:08:50.798Z,4.10
2022-11-02T23:13:57.101Z,2.97
2022-11-02T23:19:27.899Z,5.95
2022-11-02T23:24:50.617Z,4.22
2022-11-02T23:30:11.441Z,3.75
2022-11-02T23:35:32.510Z,4.88
2022-11-02T23:40:37.177Z,7.82
2022-11-02T23:45:40.542Z,5.63
2022-11-02T23:51:01.451Z,5.75
2022-11-02T23:56:25.644Z,5.68
